Time;durP1;ratioP1;P1;durP2;ratioP2;P2;SDS_P1;SDS_P2;PMS_P1;PMS_P2;Temp;Humidity;BMP_temperature;BMP_pressure;BME280_temperature;BME280_humidity;BME280_pressure;Samples;Min_cycle;Max_cycle;Signal;HPM_P1;HPM_P2
2024/03/09 00:00:19;;;;;;;;;;;;;;;16.31;46.34;101360.44;5037610;28;1106;-55
2024/03/09 00:02:48;;;;;;;;;;;;;;;15.97;47.11;101350.44;5037481;28;1163;-54
2024/03/09 00:05:14;;;;;;;;;;;;;;;15.74;47.81;101354.25;5037187;28;1980;-56
2024/03/09 00:07:39;;;;;;;;;;;;;;;16.75;45.65;101350.19;5037161;28;1210;-54
2024/03/09 00:10:11;;;;;;;;;;;;;;;17.80;43.29;101347.91;5037528;28;1186;-55
2024/03/09 00:12:36;;;;;;;;;;;;;;;16.79;45.20;101349.66;5037203;28;1044;-56
2024/03/09 00:15:02;;;;;;;;;;;;;;;16.30;46.48;101343.16;5037243;28;1166;-55
2024/03/09 00:17:28;;;;;;;;;;;;;;;15.93;47.34;101348.47;5037296;28;1040;-55
2024/03/09 00:19:54;;;;;;;;;;;;;;;15.71;48.09;101352.84;5036581;28;1160;-53
2024/03/09 00:22:20;;;;;;;;;;;;;;;17.13;44.78;101347.50;5037130;28;1187;-55
2024/03/09 00:24:47;;;;;;;;;;;;;;;17.15;44.49;101336.25;5037222;28;1910;-54
2024/03/09 00:27:14;;;;;;;;;;;;;;;16.32;46.49;101338.22;5037254;28;1086;-54
2024/03/09 00:29:40;;;;;;;;;;;;;;;15.92;47.42;101342.16;5036753;28;1503;-54
2024/03/09 00:32:05;;;;;;;;;;;;;;;16.09;47.29;101333.88;5036492;28;1079;-54
2024/03/09 00:34:32;;;;;;;;;;;;;;;17.58;43.53;101334.31;5036886;28;1086;-53
2024/03/09 00:36:58;;;;;;;;;;;;;;;16.73;45.57;101335.06;5036864;28;1115;-55
2024/03/09 00:39:23;;;;;;;;;;;;;;;16.15;46.78;101326.53;5036382;28;1431;-55
2024/03/09 00:41:49;;;;;;;;;;;;;;;15.91;47.64;101332.28;5036569;28;1134;-55
2024/03/09 00:44:14;;;;;;;;;;;;;;;15.81;47.60;101334.88;5036627;28;1984;-52
2024/03/09 00:46:40;;;;;;;;;;;;;;;17.35;44.29;101328.16;5036560;28;1241;-55
2024/03/09 00:49:05;;;;;;;;;;;;;;;17.01;44.78;101331.22;5036621;28;1035;-55
2024/03/09 00:51:31;;;;;;;;;;;;;;;16.28;46.33;101334.34;5036684;28;1129;-55
2024/03/09 00:53:56;;;;;;;;;;;;;;;15.95;47.32;101319.72;5036834;28;1210;-55
2024/03/09 00:56:23;;;;;;;;;;;;;;;15.68;47.78;101325.94;5036138;28;1192;-55
2024/03/09 00:58:48;;;;;;;;;;;;;;;16.32;46.72;101323.69;5036435;28;1183;-55
2024/03/09 01:01:14;;;;;;;;;;;;;;;17.56;43.69;101315.34;5037069;28;1122;-56
2024/03/09 01:03:39;;;;;;;;;;;;;;;16.87;45.04;101310.72;5036593;28;1139;-55
2024/03/09 01:06:05;;;;;;;;;;;;;;;16.24;46.47;101316.72;5036289;28;1905;-55
2024/03/09 01:08:31;;;;;;;;;;;;;;;15.91;47.38;101313.91;5036270;28;1130;-55
2024/03/09 01:10:56;;;;;;;;;;;;;;;15.76;47.71;101315.59;5036435;28;1215;-55
2024/03/09 01:13:22;;;;;;;;;;;;;;;17.22;44.49;101304.72;5036720;28;1371;-55
2024/03/09 01:15:52;;;;;;;;;;;;;;;17.60;43.28;101310.16;5036935;28;1075;-55
2024/03/09 01:18:18;;;;;;;;;;;;;;;16.48;46.18;101306.28;5036023;28;1019;-55
2024/03/09 01:20:43;;;;;;;;;;;;;;;16.08;47.08;101308.34;5035847;28;1118;-55
2024/03/09 01:23:09;;;;;;;;;;;;;;;15.81;47.68;101310.19;5036218;28;1043;-55
2024/03/09 01:25:34;;;;;;;;;;;;;;;16.47;46.37;101310.13;5025325;28;1910;-56
2024/03/09 01:28:00;;;;;;;;;;;;;;;17.75;43.13;101312.97;5033976;28;1133;-56
2024/03/09 01:30:25;;;;;;;;;;;;;;;16.84;45.10;101308.50;5036298;28;1071;-55
2024/03/09 01:32:51;;;;;;;;;;;;;;;16.29;46.31;101292.09;5035738;28;1011;-56
2024/03/09 01:35:16;;;;;;;;;;;;;;;15.98;46.99;101308.22;5036346;28;1158;-55
2024/03/09 01:37:42;;;;;;;;;;;;;;;15.66;48.10;101305.34;5036306;28;1174;-56
2024/03/09 01:40:09;;;;;;;;;;;;;;;16.63;45.78;101302.84;5035896;28;1099;-56
2024/03/09 01:42:35;;;;;;;;;;;;;;;17.64;43.49;101294.75;5036684;28;1075;-55
2024/03/09 01:45:05;;;;;;;;;;;;;;;16.56;45.85;101303.06;5038816;28;1898;-57
2024/03/09 01:47:31;;;;;;;;;;;;;;;16.12;46.71;101300.44;5040072;28;1091;-56
2024/03/09 01:49:57;;;;;;;;;;;;;;;15.83;47.47;101300.63;5040139;28;1035;-57
2024/03/09 01:52:23;;;;;;;;;;;;;;;15.67;47.87;101296.84;5039890;28;1078;-57
2024/03/09 01:54:49;;;;;;;;;;;;;;;17.04;44.76;101300.47;5039941;28;1451;-57
2024/03/09 01:57:14;;;;;;;;;;;;;;;17.49;43.70;101297.41;5039966;28;1148;-55
2024/03/09 01:59:42;;;;;;;;;;;;;;;16.48;45.78;101298.06;5040298;28;1122;-55
2024/03/09 02:02:09;;;;;;;;;;;;;;;16.12;46.82;101300.44;5039561;28;1058;-56
2024/03/09 02:04:36;;;;;;;;;;;;;;;15.77;47.77;101303.53;5028512;28;1964;-56
2024/03/09 02:07:03;;;;;;;;;;;;;;;16.91;45.22;101310.00;5056405;28;1086;-55
2024/03/09 02:09:28;;;;;;;;;;;;;;;17.42;43.88;101304.00;5038895;28;873;-55
2024/03/09 02:11:55;;;;;;;;;;;;;;;16.49;45.93;101307.94;5039370;28;1106;-55
2024/03/09 02:14:21;;;;;;;;;;;;;;;16.05;46.95;101308.03;5039787;28;1159;-55
2024/03/09 02:16:49;;;;;;;;;;;;;;;15.78;47.55;101308.78;5039537;28;1147;-55
2024/03/09 02:19:15;;;;;;;;;;;;;;;17.28;44.04;101308.31;5039887;28;1127;-56
2024/03/09 02:21:41;;;;;;;;;;;;;;;17.00;44.71;101307.56;5032031;28;1074;-55
2024/03/09 02:24:07;;;;;;;;;;;;;;;16.22;46.55;101303.28;5039718;28;1003;-56
2024/03/09 02:26:36;;;;;;;;;;;;;;;15.92;47.14;101303.75;5026320;28;1991;-56
2024/03/09 02:29:01;;;;;;;;;;;;;;;15.74;47.71;101313.94;5039249;28;1218;-55
2024/03/09 02:31:27;;;;;;;;;;;;;;;15.97;47.46;101312.06;5033356;28;1063;-56
2024/03/09 02:33:53;;;;;;;;;;;;;;;17.42;44.02;101315.00;5032856;28;982;-56
2024/03/09 02:36:25;;;;;;;;;;;;;;;17.22;44.04;101303.88;5038726;28;1019;-57
2024/03/09 02:38:51;;;;;;;;;;;;;;;16.40;46.03;101315.00;5025953;28;1298;-56
2024/03/09 02:41:17;;;;;;;;;;;;;;;15.95;47.11;101316.97;5038858;28;1158;-55
2024/03/09 02:43:43;;;;;;;;;;;;;;;15.73;47.85;101315.00;5038617;28;1047;-55
2024/03/09 02:46:10;;;;;;;;;;;;;;;15.49;48.50;101327.31;5038882;28;1982;-56
2024/03/09 02:48:36;;;;;;;;;;;;;;;17.05;44.88;101318.59;5025450;28;1187;-55
2024/03/09 02:51:01;;;;;;;;;;;;;;;17.30;43.90;101317.13;5039454;28;1234;-55
2024/03/09 02:53:27;;;;;;;;;;;;;;;16.38;46.27;101320.75;5037539;28;1155;-55
2024/03/09 02:55:53;;;;;;;;;;;;;;;15.90;47.44;101322.38;5037999;28;1148;-55
2024/03/09 02:58:19;;;;;;;;;;;;;;;15.70;47.78;101322.94;5038159;28;868;-54
2024/03/09 03:00:45;;;;;;;;;;;;;;;15.58;48.10;101325.78;5038582;28;1130;-54
2024/03/09 03:05:55;;;;;;;;;;;;;;;17.03;44.63;101330.97;5038575;28;1967;-55
2024/03/09 03:08:21;;;;;;;;;;;;;;;16.19;46.64;101330.41;5037465;28;1103;-55
2024/03/09 03:10:46;;;;;;;;;;;;;;;15.86;47.21;101333.03;5038126;28;1027;-55
2024/03/09 03:13:14;;;;;;;;;;;;;;;15.69;47.96;101337.72;5038704;28;1142;-55
2024/03/09 03:15:39;;;;;;;;;;;;;;;17.21;44.48;101329.72;5038381;28;1121;-55
2024/03/09 03:18:07;;;;;;;;;;;;;;;17.27;43.88;101334.13;5038084;28;1138;-52
2024/03/09 03:20:33;;;;;;;;;;;;;;;16.31;46.30;101341.22;5038616;28;1282;-55
2024/03/09 03:22:59;;;;;;;;;;;;;;;15.91;47.17;101335.84;5038188;28;979;-55
2024/03/09 03:25:25;;;;;;;;;;;;;;;15.70;47.64;101345.69;5038560;28;1975;-55
2024/03/09 03:27:51;;;;;;;;;;;;;;;16.55;45.77;101334.34;5038449;28;1071;-55
2024/03/09 03:30:19;;;;;;;;;;;;;;;17.72;42.96;101338.25;5038002;28;1067;-55
2024/03/09 03:32:44;;;;;;;;;;;;;;;16.62;45.55;101328.66;5038547;28;1134;-55
2024/03/09 03:35:10;;;;;;;;;;;;;;;16.11;46.57;101328.13;5037823;28;976;-55
2024/03/09 03:37:36;;;;;;;;;;;;;;;15.77;47.46;101333.69;5038217;28;1178;-56
2024/03/09 03:40:01;;;;;;;;;;;;;;;15.72;47.66;101329.84;5038473;28;1127;-55
2024/03/09 03:42:27;;;;;;;;;;;;;;;17.27;44.20;101320.41;5038043;28;1102;-55
2024/03/09 03:44:52;;;;;;;;;;;;;;;17.05;44.24;101329.56;5037527;28;1902;-55
2024/03/09 03:47:18;;;;;;;;;;;;;;;16.24;46.25;101334.03;5037552;28;1055;-55
2024/03/09 03:49:46;;;;;;;;;;;;;;;16.03;46.76;101321.16;5036329;28;1016;-56
2024/03/09 03:52:15;;;;;;;;;;;;;;;16.42;46.10;101335.59;5037461;28;1082;-64
2024/03/09 03:54:40;;;;;;;;;;;;;;;17.55;43.47;101332.13;5037695;28;1123;-63
2024/03/09 03:57:06;;;;;;;;;;;;;;;16.47;45.98;101336.75;5034711;28;1081;-64
2024/03/09 03:59:34;;;;;;;;;;;;;;;16.02;46.98;101344.19;5037651;28;1032;-63
2024/03/09 04:01:59;;;;;;;;;;;;;;;15.83;47.59;101341.78;5037624;28;1130;-61
2024/03/09 04:04:25;;;;;;;;;;;;;;;17.13;44.49;101344.75;5037382;28;1898;-61
2024/03/09 04:06:50;;;;;;;;;;;;;;;17.28;43.98;101336.63;5037345;28;1142;-58
2024/03/09 04:09:16;;;;;;;;;;;;;;;16.41;46.24;101339.44;5037095;28;1167;-60
2024/03/09 04:11:43;;;;;;;;;;;;;;;15.98;46.97;101334.84;5037736;28;1058;-58
2024/03/09 04:14:09;;;;;;;;;;;;;;;15.72;47.56;101338.06;5027190;28;1095;-59
2024/03/09 04:16:35;;;;;;;;;;;;;;;16.34;46.62;101338.81;5034359;28;1035;-59
2024/03/09 04:19:02;;;;;;;;;;;;;;;17.59;43.57;101336.00;5037705;28;1126;-61
2024/03/09 04:21:27;;;;;;;;;;;;;;;16.73;45.12;101335.06;5036981;28;1067;-59
2024/03/09 04:23:53;;;;;;;;;;;;;;;16.14;46.63;101335.84;5037291;28;1036;-61
2024/03/09 04:26:18;;;;;;;;;;;;;;;15.77;47.52;101331.81;5036992;28;1921;-62
2024/03/09 04:28:44;;;;;;;;;;;;;;;15.91;47.50;101340.50;5036835;28;1071;-60
2024/03/09 04:31:09;;;;;;;;;;;;;;;17.38;43.83;101333.13;5037029;28;1150;-60
2024/03/09 04:33:35;;;;;;;;;;;;;;;16.97;44.77;101335.59;5037048;28;1159;-61
2024/03/09 04:36:01;;;;;;;;;;;;;;;16.19;46.31;101335.91;5023627;28;991;-61
2024/03/09 04:38:26;;;;;;;;;;;;;;;15.92;47.14;101336.66;5027229;28;1069;-59
2024/03/09 04:40:52;;;;;;;;;;;;;;;15.76;47.69;101338.38;5033488;28;1044;-62
2024/03/09 04:43:17;;;;;;;;;;;;;;;17.37;43.91;101336.13;5036946;28;1063;-62
2024/03/09 04:45:45;;;;;;;;;;;;;;;17.00;44.34;101339.69;5036095;28;1906;-59
2024/03/09 04:48:11;;;;;;;;;;;;;;;16.25;46.13;101345.84;5037062;28;1293;-59
2024/03/09 04:50:38;;;;;;;;;;;;;;;15.91;47.14;101346.81;5036309;28;1124;-60
2024/03/09 04:53:05;;;;;;;;;;;;;;;16.05;46.90;101340.97;5036846;28;1178;-55
2024/03/09 04:55:31;;;;;;;;;;;;;;;17.50;43.59;101341.16;5036720;28;1520;-56
2024/03/09 04:57:59;;;;;;;;;;;;;;;16.99;44.43;101344.38;5036066;28;1055;-58
2024/03/09 05:00:26;;;;;;;;;;;;;;;16.32;46.09;101338.22;5036337;28;1155;-62
2024/03/09 05:02:51;;;;;;;;;;;;;;;15.90;47.19;101345.16;5036971;28;1116;-60
2024/03/09 05:05:17;;;;;;;;;;;;;;;15.72;47.49;101346.28;5036295;28;1909;-55
2024/03/09 05:07:43;;;;;;;;;;;;;;;16.84;45.12;101346.97;5036417;28;1028;-56
2024/03/09 05:10:10;;;;;;;;;;;;;;;17.73;42.90;101352.84;5035803;28;1150;-56
2024/03/09 05:12:36;;;;;;;;;;;;;;;16.93;45.00;101357.25;5036513;28;1219;-54
2024/03/09 05:15:02;;;;;;;;;;;;;;;17.21;43.80;101357.19;5036195;28;1163;-57
2024/03/09 05:17:28;;;;;;;;;;;;;;;16.27;46.01;101360.16;5035755;28;1175;-56
2024/03/09 05:19:53;;;;;;;;;;;;;;;15.86;46.63;101360.44;5034784;28;1086;-56
2024/03/09 05:22:19;;;;;;;;;;;;;;;16.34;46.00;101365.41;5034554;28;1206;-56
2024/03/09 05:24:44;;;;;;;;;;;;;;;16.64;45.39;101370.41;5029638;28;2044;-56
2024/03/09 05:27:10;;;;;;;;;;;;;;;15.94;46.43;101367.41;5035882;28;1142;-56
2024/03/09 05:29:36;;;;;;;;;;;;;;;15.85;46.57;101368.94;5032577;28;1334;-55
2024/03/09 05:32:05;;;;;;;;;;;;;;;17.49;43.71;101363.41;5035834;28;1176;-56
2024/03/09 05:34:34;;;;;;;;;;;;;;;16.18;46.32;101378.13;5033233;28;1044;-55
2024/03/09 05:37:06;;;;;;;;;;;;;;;15.80;46.68;101382.59;5035821;28;1020;-55
2024/03/09 05:39:32;;;;;;;;;;;;;;;17.09;44.75;101371.94;5035604;28;1086;-55
2024/03/09 05:41:57;;;;;;;;;;;;;;;16.11;46.32;101378.31;5036159;28;1059;-55
2024/03/09 05:44:23;;;;;;;;;;;;;;;17.45;43.79;101382.38;5036449;28;1226;-55
2024/03/09 05:46:48;;;;;;;;;;;;;;;17.31;43.63;101382.00;5035633;28;1901;-56
2024/03/09 05:49:14;;;;;;;;;;;;;;;16.27;46.20;101382.09;5033713;28;1375;-57
2024/03/09 05:51:39;;;;;;;;;;;;;;;16.06;46.11;101378.25;5035778;28;1106;-57
2024/03/09 05:54:06;;;;;;;;;;;;;;;17.02;45.08;101382.31;5031869;28;2684;-57
2024/03/09 05:56:31;;;;;;;;;;;;;;;16.56;45.42;101382.69;5030344;28;1135;-54
2024/03/09 05:58:56;;;;;;;;;;;;;;;16.37;46.08;101389.63;5035136;28;1444;-55
2024/03/09 06:01:26;;;;;;;;;;;;;;;17.75;43.09;101391.91;5035913;28;1118;-54
2024/03/09 06:03:52;;;;;;;;;;;;;;;16.48;45.66;101385.06;5036149;28;1070;-56
2024/03/09 06:06:19;;;;;;;;;;;;;;;17.27;44.46;101389.94;5035883;28;1910;-54
2024/03/09 06:08:45;;;;;;;;;;;;;;;16.96;44.64;101386.13;5035518;28;1063;-55
2024/03/09 06:11:10;;;;;;;;;;;;;;;16.28;45.71;101381.00;5035679;28;1042;-55
2024/03/09 06:13:36;;;;;;;;;;;;;;;16.22;46.06;101384.78;5030018;28;1031;-55
2024/03/09 06:16:01;;;;;;;;;;;;;;;17.02;44.80;101382.31;5028414;28;1043;-56
2024/03/09 06:18:27;;;;;;;;;;;;;;;16.32;45.80;101392.31;5036050;28;1151;-56
2024/03/09 06:20:52;;;;;;;;;;;;;;;16.11;46.16;101388.47;5035920;28;1098;-56
2024/03/09 06:23:19;;;;;;;;;;;;;;;17.44;43.67;101395.28;5034930;28;2518;-56
2024/03/09 06:25:46;;;;;;;;;;;;;;;16.31;45.90;101393.38;5036047;28;1910;-56
2024/03/09 06:28:14;;;;;;;;;;;;;;;16.01;46.04;101395.50;5035480;28;1055;-57
2024/03/09 06:30:40;;;;;;;;;;;;;;;17.73;43.27;101391.34;5037777;28;1076;-56
2024/03/09 06:33:06;;;;;;;;;;;;;;;16.46;45.64;101390.81;5025755;28;1098;-57
2024/03/09 06:35:31;;;;;;;;;;;;;;;17.17;44.50;101389.03;5038709;28;1027;-56
2024/03/09 06:38:00;;;;;;;;;;;;;;;17.36;43.87;101397.69;5032838;28;1048;-56
2024/03/09 06:40:31;;;;;;;;;;;;;;;16.43;45.87;101397.63;5032412;28;1102;-56
2024/03/09 06:42:58;;;;;;;;;;;;;;;16.23;45.70;101395.50;5026428;28;1009;-56
2024/03/09 06:45:24;;;;;;;;;;;;;;;16.88;45.12;101397.53;5038850;28;1910;-56
2024/03/09 06:47:49;;;;;;;;;;;;;;;16.88;44.99;101400.28;5039162;28;900;-56
2024/03/09 06:50:15;;;;;;;;;;;;;;;16.29;46.17;101401.88;5038192;28;1102;-56
2024/03/09 06:52:40;;;;;;;;;;;;;;;17.45;43.91;101402.44;5038711;28;1086;-56
2024/03/09 06:55:06;;;;;;;;;;;;;;;16.43;45.72;101402.31;5021036;28;2861;-57
2024/03/09 06:57:35;;;;;;;;;;;;;;;16.73;45.66;101407.31;5039245;28;1134;-54
2024/03/09 07:00:11;;;;;;;;;;;;;;;17.08;44.25;101403.25;5037947;28;1099;-54
2024/03/09 07:02:37;;;;;;;;;;;;;;;16.33;45.97;101407.69;5038687;28;1206;-54
2024/03/09 07:05:04;;;;;;;;;;;;;;;16.97;44.96;101401.53;5037282;28;1898;-52
2024/03/09 07:07:30;;;;;;;;;;;;;;;16.70;45.21;101402.31;5039031;28;991;-53
2024/03/09 07:09:56;;;;;;;;;;;;;;;16.21;45.86;101402.31;5038404;28;1019;-53
2024/03/09 07:12:22;;;;;;;;;;;;;;;17.07;44.95;101404.34;5038203;28;1306;-55
2024/03/09 07:14:48;;;;;;;;;;;;;;;16.76;45.19;101411.44;5038385;28;1210;-54
2024/03/09 07:17:17;;;;;;;;;;;;;;;16.12;46.50;101406.59;5038551;28;1027;-54
2024/03/09 07:19:46;;;;;;;;;;;;;;;15.97;46.08;101408.06;5038117;28;1103;-54
2024/03/09 07:22:14;;;;;;;;;;;;;;;16.34;46.01;101406.59;5038459;28;1143;-51
2024/03/09 07:24:42;;;;;;;;;;;;;;;17.45;43.66;101398.88;5026634;28;1966;-54
2024/03/09 07:27:08;;;;;;;;;;;;;;;16.33;46.15;101404.94;5038492;28;1055;-53
2024/03/09 07:29:35;;;;;;;;;;;;;;;17.53;43.87;101403.88;5037695;28;1159;-53
2024/03/09 07:32:00;;;;;;;;;;;;;;;16.96;44.73;101412.75;5035986;28;1086;-53
2024/03/09 07:34:28;;;;;;;;;;;;;;;16.35;45.85;101411.00;5038058;28;1084;-54
2024/03/09 07:36:55;;;;;;;;;;;;;;;16.14;45.70;101398.94;5037409;28;917;-54
2024/03/09 07:39:23;;;;;;;;;;;;;;;17.17;44.39;101400.03;5038401;28;1048;-53
2024/03/09 07:41:48;;;;;;;;;;;;;;;16.74;45.04;101405.38;5037009;28;1484;-53
2024/03/09 07:44:14;;;;;;;;;;;;;;;16.10;46.35;101417.00;5038175;28;1171;-54
2024/03/09 07:46:39;;;;;;;;;;;;;;;16.02;45.85;101415.50;5018795;28;1894;-54
2024/03/09 07:49:05;;;;;;;;;;;;;;;16.54;45.56;101414.22;5037116;28;885;-55
2024/03/09 07:51:31;;;;;;;;;;;;;;;16.90;44.95;101412.72;5037748;28;1059;-56
2024/03/09 07:53:58;;;;;;;;;;;;;;;16.71;45.72;101414.13;5028925;28;2455;-55
2024/03/09 07:56:24;;;;;;;;;;;;;;;18.28;41.76;101408.41;5037084;28;1206;-55
2024/03/09 07:58:50;;;;;;;;;;;;;;;16.94;44.71;101413.00;5037556;28;1063;-56
2024/03/09 08:01:18;;;;;;;;;;;;;;;16.48;45.59;101412.50;5038074;28;1143;-53
2024/03/09 08:03:45;;;;;;;;;;;;;;;17.85;43.02;101413.97;5037435;28;1027;-51
2024/03/09 08:06:11;;;;;;;;;;;;;;;16.73;45.02;101411.94;5027925;28;1906;-53
2024/03/09 08:08:36;;;;;;;;;;;;;;;17.65;43.30;101411.09;5037594;28;1333;-54
2024/03/09 08:11:02;;;;;;;;;;;;;;;17.67;43.27;101404.25;5035797;28;1289;-54
2024/03/09 08:13:28;;;;;;;;;;;;;;;16.76;45.03;101412.28;5030938;28;1071;-53
2024/03/09 08:15:54;;;;;;;;;;;;;;;16.52;45.21;101410.91;5037715;28;1032;-53
2024/03/09 08:18:21;;;;;;;;;;;;;;;16.89;45.05;101415.72;5036623;28;1360;-53
2024/03/09 08:20:46;;;;;;;;;;;;;;;16.85;44.97;101414.56;5037091;28;1080;-55
2024/03/09 08:23:12;;;;;;;;;;;;;;;16.36;45.96;101410.72;5036266;28;2433;-55
2024/03/09 08:25:38;;;;;;;;;;;;;;;16.08;46.03;101412.59;5037128;28;1906;-52
2024/03/09 08:28:04;;;;;;;;;;;;;;;17.16;44.27;101412.13;5036686;28;1102;-52
2024/03/09 08:30:31;;;;;;;;;;;;;;;16.46;45.94;101407.28;5036951;28;1045;-54
2024/03/09 08:32:59;;;;;;;;;;;;;;;18.17;42.11;101407.53;5036167;28;1238;-54
2024/03/09 08:35:27;;;;;;;;;;;;;;;17.42;43.61;101408.47;5035800;28;1225;-55
2024/03/09 08:37:52;;;;;;;;;;;;;;;16.76;44.83;101404.03;5036595;28;1119;-55
2024/03/09 08:40:18;;;;;;;;;;;;;;;16.39;45.57;101407.47;5036600;28;1035;-53
2024/03/09 08:42:44;;;;;;;;;;;;;;;17.82;43.01;101403.47;5037112;28;1036;-54
2024/03/09 08:45:10;;;;;;;;;;;;;;;16.77;45.03;101408.44;5036186;28;1914;-54
2024/03/09 08:47:36;;;;;;;;;;;;;;;16.46;45.24;101401.78;5034819;28;870;-55
2024/03/09 08:50:02;;;;;;;;;;;;;;;17.24;44.05;101400.63;5016779;28;1079;-53
2024/03/09 08:52:27;;;;;;;;;;;;;;;16.45;45.66;101400.13;5031449;28;1032;-53
2024/03/09 08:54:52;;;;;;;;;;;;;;;17.57;43.50;101405.00;5028800;28;2705;-54
2024/03/09 08:57:18;;;;;;;;;;;;;;;17.05;44.37;101398.25;5018711;28;1322;-56
2024/03/09 08:59:46;;;;;;;;;;;;;;;16.63;45.10;101398.94;5036327;28;1250;-54
2024/03/09 09:02:11;;;;;;;;;;;;;;;16.22;45.40;101395.75;5036005;28;1095;-53
2024/03/09 09:04:37;;;;;;;;;;;;;;;17.03;44.39;101388.66;5027713;28;1894;-54
2024/03/09 09:07:04;;;;;;;;;;;;;;;16.28;45.88;101386.47;5036355;28;1332;-54
2024/03/09 09:09:31;;;;;;;;;;;;;;;18.16;42.15;101397.66;5035551;28;1219;-53
2024/03/09 09:11:57;;;;;;;;;;;;;;;17.21;43.92;101387.44;5035664;28;1044;-53
2024/03/09 09:14:23;;;;;;;;;;;;;;;16.58;45.23;101387.94;5024360;28;1104;-52
2024/03/09 09:16:49;;;;;;;;;;;;;;;16.39;45.48;101391.00;5035158;28;1035;-53
2024/03/09 09:19:15;;;;;;;;;;;;;;;16.73;45.14;101390.81;5036034;28;1035;-52
2024/03/09 09:21:40;;;;;;;;;;;;;;;17.09;44.29;101385.66;5035692;28;1106;-53
2024/03/09 09:24:06;;;;;;;;;;;;;;;16.45;45.65;101391.06;5033264;28;2384;-49
2024/03/09 09:26:33;;;;;;;;;;;;;;;17.75;43.01;101384.50;5033975;28;1914;-52
2024/03/09 09:28:59;;;;;;;;;;;;;;;16.78;45.05;101387.28;5022621;28;1085;-55
2024/03/09 09:31:25;;;;;;;;;;;;;;;16.76;45.10;101381.25;5035582;28;1204;-54
2024/03/09 09:33:51;;;;;;;;;;;;;;;17.98;42.28;101379.69;5030946;28;1015;-54
2024/03/09 09:36:18;;;;;;;;;;;;;;;16.83;44.85;101379.09;5036047;28;1091;-54
2024/03/09 09:38:45;;;;;;;;;;;;;;;16.43;45.53;101380.34;5035675;28;1203;-54
2024/03/09 09:41:10;;;;;;;;;;;;;;;17.00;44.54;101384.50;5034980;28;1230;-54
2024/03/09 09:43:37;;;;;;;;;;;;;;;17.30;43.83;101385.00;5028104;28;1290;-51
2024/03/09 09:46:03;;;;;;;;;;;;;;;16.52;45.53;101389.78;5034406;28;1992;-53
2024/03/09 09:48:28;;;;;;;;;;;;;;;17.67;43.34;101382.25;5035505;28;1063;-55
2024/03/09 09:50:54;;;;;;;;;;;;;;;16.75;45.11;101382.31;5034568;28;1005;-55
2024/03/09 09:53:20;;;;;;;;;;;;;;;16.40;45.34;101387.19;5034175;28;2622;-54
2024/03/09 09:55:46;;;;;;;;;;;;;;;17.33;43.82;101382.53;5035142;28;1262;-52
2024/03/09 09:58:15;;;;;;;;;;;;;;;16.51;45.36;101382.63;5035455;28;1034;-54
2024/03/09 10:00:40;;;;;;;;;;;;;;;16.27;45.64;101375.75;5035319;28;974;-55
2024/03/09 10:03:06;;;;;;;;;;;;;;;17.06;44.72;101377.13;5028177;28;1063;-54
2024/03/09 10:05:31;;;;;;;;;;;;;;;16.89;44.81;101377.25;5035694;28;1977;-54
2024/03/09 10:08:08;;;;;;;;;;;;;;;16.35;45.56;101381.63;5026654;28;1008;-55
2024/03/09 10:10:35;;;;;;;;;;;;;;;16.72;45.26;101375.44;5026917;28;1153;-54
2024/03/09 10:13:04;;;;;;;;;;;;;;;17.27;43.70;101372.63;5038249;28;1219;-55
2024/03/09 10:15:30;;;;;;;;;;;;;;;16.55;45.19;101374.69;5039741;28;1064;-53
2024/03/09 10:17:55;;;;;;;;;;;;;;;16.18;45.73;101380.88;5037980;28;1060;-55
2024/03/09 10:20:21;;;;;;;;;;;;;;;17.32;43.95;101378.16;5034336;28;1065;-55
2024/03/09 10:22:47;;;;;;;;;;;;;;;16.68;45.67;101379.78;5036172;28;1039;-54
2024/03/09 10:25:22;;;;;;;;;;;;;;;18.39;41.68;101377.06;5038046;28;2683;-53
2024/03/09 10:27:48;;;;;;;;;;;;;;;17.45;43.55;101369.44;5021960;28;1095;-53
2024/03/09 10:30:15;;;;;;;;;;;;;;;16.93;44.63;101368.22;5033474;28;1329;-53
2024/03/09 10:32:43;;;;;;;;;;;;;;;16.47;45.51;101370.50;5037317;28;1118;-53
2024/03/09 10:35:09;;;;;;;;;;;;;;;17.58;43.37;101353.56;5034359;28;1056;-50
2024/03/09 10:37:38;;;;;;;;;;;;;;;16.99;44.82;101365.53;5029852;28;858;-53
2024/03/09 10:40:06;;;;;;;;;;;;;;;18.70;41.08;101357.84;5034863;28;1143;-54
2024/03/09 10:42:32;;;;;;;;;;;;;;;17.73;43.10;101356.41;5038734;28;1139;-54
2024/03/09 10:44:58;;;;;;;;;;;;;;;17.01;44.47;101349.59;5037200;28;2056;-53
2024/03/09 10:47:25;;;;;;;;;;;;;;;16.70;45.09;101347.38;5031349;28;1002;-55
2024/03/09 10:49:50;;;;;;;;;;;;;;;17.16;44.53;101352.47;5036947;28;1179;-54
2024/03/09 10:52:19;;;;;;;;;;;;;;;16.87;45.04;101341.78;5070888;28;1013;-52
2024/03/09 10:54:48;;;;;;;;;;;;;;;16.48;45.44;101343.88;5026419;28;2485;-53
2024/03/09 10:57:15;;;;;;;;;;;;;;;17.56;43.24;101336.53;5038157;28;1232;-52
2024/03/09 10:59:41;;;;;;;;;;;;;;;16.76;45.13;101346.34;5037540;28;1134;-52
2024/03/09 11:02:07;;;;;;;;;;;;;;;16.43;45.50;101353.72;5038252;28;889;-54
2024/03/09 11:04:32;;;;;;;;;;;;;;;16.26;45.54;101342.00;5038062;28;1182;-53
2024/03/09 11:06:58;;;;;;;;;;;;;;;16.86;45.15;101340.13;5036777;28;1909;-52
2024/03/09 11:09:29;;;;;;;;;;;;;;;17.11;44.56;101330.47;5034656;28;1095;-52
2024/03/09 11:11:59;;;;;;;;;;;;;;;16.50;45.47;101336.22;5064217;28;1317;-53
2024/03/09 11:14:25;;;;;;;;;;;;;;;17.88;42.85;101327.31;5038047;28;1141;-54
2024/03/09 11:16:51;;;;;;;;;;;;;;;17.01;44.69;101320.22;5037002;28;1356;-54
2024/03/09 11:19:16;;;;;;;;;;;;;;;16.76;45.54;101318.06;5037825;28;1368;-54
2024/03/09 11:21:42;;;;;;;;;;;;;;;17.88;42.50;101314.41;5032260;28;1371;-55
2024/03/09 11:24:08;;;;;;;;;;;;;;;16.91;44.60;101314.63;5031407;28;2423;-54
2024/03/09 11:26:40;;;;;;;;;;;;;;;16.51;45.44;101316.75;5037446;28;1979;-54
2024/03/09 11:29:07;;;;;;;;;;;;;;;17.34;43.75;101312.75;5037230;28;997;-54
2024/03/09 11:31:32;;;;;;;;;;;;;;;16.52;45.25;101314.81;5036684;28;1175;-54
2024/03/09 11:34:13;;;;;;;;;;;;;;;16.36;45.48;101306.44;5036831;28;1208;-54
2024/03/09 11:36:39;;;;;;;;;;;;;;;17.30;43.70;101305.31;5037675;28;1055;-55
2024/03/09 11:39:05;;;;;;;;;;;;;;;16.50;45.56;101295.03;5020994;28;1062;-55
2024/03/09 11:41:31;;;;;;;;;;;;;;;18.22;41.95;101300.22;5018062;28;1126;-55
2024/03/09 11:43:58;;;;;;;;;;;;;;;17.39;43.43;101299.03;5034609;28;1028;-55
2024/03/09 11:46:23;;;;;;;;;;;;;;;16.75;45.00;101300.75;5037354;28;1894;-55
2024/03/09 11:48:52;;;;;;;;;;;;;;;16.57;45.01;101298.41;5036874;28;1146;-55
2024/03/09 11:51:19;;;;;;;;;;;;;;;17.32;44.04;101295.69;5037487;28;1230;-55
2024/03/09 11:53:46;;;;;;;;;;;;;;;17.27;43.99;101290.16;5034310;28;2546;-55
2024/03/09 11:56:12;;;;;;;;;;;;;;;16.75;45.11;101300.75;5037368;28;1139;-55
2024/03/09 11:58:39;;;;;;;;;;;;;;;18.42;41.26;101299.41;5037274;28;1020;-54
2024/03/09 12:01:04;;;;;;;;;;;;;;;17.09;44.19;101286.75;5037211;28;1210;-53
2024/03/09 12:03:30;;;;;;;;;;;;;;;16.77;44.78;101295.84;5036432;28;1246;-53
2024/03/09 12:05:56;;;;;;;;;;;;;;;16.51;45.07;101299.44;5036863;28;1965;-51
2024/03/09 12:08:22;;;;;;;;;;;;;;;16.54;45.32;101296.19;5034060;28;1154;-54
2024/03/09 12:10:47;;;;;;;;;;;;;;;17.16;44.25;101289.25;5033200;28;1144;-54
2024/03/09 12:13:13;;;;;;;;;;;;;;;16.55;45.36;101289.59;5036092;28;1211;-53
2024/03/09 12:15:39;;;;;;;;;;;;;;;17.06;44.65;101281.78;5037187;28;1171;-54
2024/03/09 12:18:05;;;;;;;;;;;;;;;17.03;44.56;101296.06;5037115;28;1206;-55
2024/03/09 12:20:31;;;;;;;;;;;;;;;16.54;45.24;101287.94;5036796;28;1076;-53
2024/03/09 12:22:56;;;;;;;;;;;;;;;16.38;45.55;101296.03;5036281;28;2472;-55
2024/03/09 12:25:22;;;;;;;;;;;;;;;17.12;44.30;101287.31;5031227;28;1918;-52
2024/03/09 12:27:50;;;;;;;;;;;;;;;16.55;45.22;101295.06;5023204;28;1032;-54
2024/03/09 12:30:16;;;;;;;;;;;;;;;16.36;45.38;101291.91;5037011;28;1071;-52
2024/03/09 12:32:42;;;;;;;;;;;;;;;17.96;42.46;101296.56;5037101;28;1099;-55
2024/03/09 12:35:07;;;;;;;;;;;;;;;16.69;45.32;101298.22;5036502;28;1159;-54
2024/03/09 12:37:35;;;;;;;;;;;;;;;16.60;45.48;101297.88;5036054;28;1131;-53
2024/03/09 12:40:10;;;;;;;;;;;;;;;17.09;44.34;101289.50;5036756;28;1070;-56
2024/03/09 12:42:42;;;;;;;;;;;;;;;16.50;45.48;101304.09;5036593;28;1078;-56
2024/03/09 12:45:24;;;;;;;;;;;;;;;16.37;45.57;101297.13;5036387;28;1914;-54